createdAt,value
2023-03-29T00:00:51.444Z,23.70
2023-03-29T00:06:05.860Z,21.10
2023-03-29T00:11:09.754Z,20.00
2023-03-29T00:16:14.074Z,18.80
2023-03-29T00:21:18.115Z,17.80
2023-03-29T00:26:22.367Z,20.60
2023-03-29T00:31:26.835Z,16.80
2023-03-29T00:36:30.860Z,16.00
2023-03-29T00:41:34.974Z,14.70
2023-03-29T00:46:39.133Z,15.70
2023-03-29T00:51:44.036Z,16.80
2023-03-29T00:56:51.572Z,16.70
2023-03-29T01:02:02.649Z,17.00
2023-03-29T01:07:18.921Z,17.30
2023-03-29T01:12:31.509Z,16.30
2023-03-29T01:17:35.479Z,17.60
2023-03-29T01:23:01.173Z,14.40
2023-03-29T01:28:11.046Z,12.80
2023-03-29T01:33:24.000Z,13.50
2023-03-29T01:38:36.396Z,12.90
2023-03-29T01:43:52.021Z,18.10
2023-03-29T01:49:01.904Z,15.60
2023-03-29T01:54:13.225Z,13.40
2023-03-29T01:59:22.944Z,11.20
2023-03-29T02:04:36.252Z,13.70
2023-03-29T02:09:41.524Z,15.10
2023-03-29T02:14:46.386Z,13.00
2023-03-29T02:20:21.081Z,10.10
2023-03-29T02:25:26.230Z,13.30
2023-03-29T02:30:48.838Z,11.90
2023-03-29T02:35:59.072Z,13.40
2023-03-29T02:41:04.408Z,12.30
2023-03-29T02:46:08.726Z,13.00
2023-03-29T02:51:23.274Z,13.50
2023-03-29T02:56:27.413Z,13.10
2023-03-29T03:01:31.461Z,11.40
2023-03-29T03:06:37.117Z,11.30
2023-03-29T03:11:43.508Z,12.20
2023-03-29T03:16:47.888Z,10.80
2023-03-29T03:21:52.305Z,11.10
2023-03-29T03:26:58.865Z,11.00
2023-03-29T03:32:03.136Z,11.90
2023-03-29T03:37:30.687Z,10.00
2023-03-29T03:42:35.209Z,10.40
2023-03-29T03:47:39.977Z,12.20
2023-03-29T03:53:00.582Z,12.50
2023-03-29T03:58:07.778Z,10.70
2023-03-29T04:03:12.201Z,10.10
2023-03-29T04:08:17.815Z,11.00
2023-03-29T04:13:44.738Z,9.60
2023-03-29T04:19:03.823Z,11.70
2023-03-29T04:24:08.274Z,8.90
2023-03-29T04:29:13.109Z,10.70
2023-03-29T04:34:23.042Z,8.90
2023-03-29T04:39:34.268Z,11.70
2023-03-29T04:44:43.987Z,13.30
2023-03-29T04:49:49.927Z,10.80
2023-03-29T04:55:04.418Z,9.70
2023-03-29T05:00:33.023Z,10.10
2023-03-29T05:05:52.164Z,9.50
2023-03-29T05:10:56.715Z,9.20
2023-03-29T05:16:04.711Z,8.90
2023-03-29T05:21:09.807Z,9.20
2023-03-29T05:26:15.753Z,11.20
2023-03-29T05:31:24.341Z,10.90
2023-03-29T05:36:30.983Z,8.40
2023-03-29T05:41:36.152Z,10.20
2023-03-29T05:52:02.630Z,9.70
2023-03-29T05:57:07.524Z,10.10
2023-03-29T06:02:12.772Z,10.00
2023-03-29T06:07:21.584Z,8.90
2023-03-29T06:12:42.605Z,9.60
2023-03-29T06:17:47.714Z,12.70
2023-03-29T06:22:53.040Z,11.30
2023-03-29T06:27:57.268Z,19.90
2023-03-29T06:33:01.566Z,11.30
2023-03-29T06:38:21.302Z,8.00
2023-03-29T06:43:43.962Z,9.00
2023-03-29T06:48:53.619Z,8.10
2023-03-29T06:53:58.068Z,8.70
2023-03-29T06:59:02.427Z,11.90
2023-03-29T07:04:16.265Z,8.90
2023-03-29T07:09:40.474Z,12.40
2023-03-29T07:15:03.407Z,11.00
2023-03-29T07:20:27.498Z,9.70
2023-03-29T07:25:41.870Z,15.30
2023-03-29T07:30:46.919Z,12.90
2023-03-29T07:35:53.671Z,13.00
2023-03-29T07:40:58.983Z,10.90
2023-03-29T07:46:29.884Z,9.90
2023-03-29T07:51:34.467Z,17.90
2023-03-29T07:56:43.025Z,11.20
2023-03-29T08:01:55.833Z,7.40
2023-03-29T08:07:04.890Z,19.50
2023-03-29T08:12:27.024Z,89.40
2023-03-29T08:17:35.252Z,70.90
2023-03-29T08:22:39.978Z,52.70
2023-03-29T08:28:04.816Z,50.00
2023-03-29T08:33:19.236Z,48.20
2023-03-29T08:38:27.614Z,43.80
2023-03-29T08:43:53.371Z,37.40
2023-03-29T08:49:31.246Z,41.00
2023-03-29T08:54:43.110Z,38.50
2023-03-29T09:00:10.878Z,38.20
2023-03-29T09:05:26.994Z,38.80
2023-03-29T09:11:20.907Z,33.70
2023-03-29T09:16:41.549Z,37.40
2023-03-29T09:21:55.989Z,34.50
2023-03-29T09:27:11.383Z,35.80
2023-03-29T09:32:23.597Z,37.00
2023-03-29T09:37:37.458Z,27.70
2023-03-29T09:42:42.197Z,29.20
2023-03-29T09:47:58.458Z,27.40
2023-03-29T09:53:04.187Z,27.80
2023-03-29T09:58:19.176Z,27.50
2023-03-29T10:03:29.965Z,24.90
2023-03-29T10:08:57.383Z,23.20
2023-03-29T10:14:07.774Z,22.20
2023-03-29T10:19:35.355Z,25.10
2023-03-29T10:24:39.324Z,23.10
2023-03-29T10:29:43.844Z,23.60
2023-03-29T10:34:48.515Z,20.00
2023-03-29T10:39:54.784Z,18.70
2023-03-29T10:45:00.789Z,16.50
2023-03-29T10:50:07.780Z,18.80
2023-03-29T10:55:15.201Z,21.50
2023-03-29T11:00:29.830Z,19.10
2023-03-29T11:06:02.520Z,17.40
2023-03-29T11:11:15.520Z,16.90
2023-03-29T11:16:35.261Z,18.60
2023-03-29T11:21:56.567Z,19.70
2023-03-29T11:27:24.867Z,20.90
2023-03-29T11:32:36.247Z,16.20
2023-03-29T11:37:57.482Z,16.20
2023-03-29T11:43:06.020Z,16.10
2023-03-29T11:48:17.785Z,16.90
2023-03-29T11:58:45.240Z,15.20
2023-03-29T12:03:57.453Z,17.20
2023-03-29T12:09:08.155Z,12.60
2023-03-29T12:14:12.177Z,12.50
2023-03-29T12:19:40.295Z,11.70
2023-03-29T12:24:49.212Z,12.30
2023-03-29T12:30:28.051Z,12.80
2023-03-29T12:36:13.248Z,14.20
2023-03-29T12:42:12.951Z,16.50
2023-03-29T12:47:45.414Z,15.10
2023-03-29T12:52:49.521Z,16.30
2023-03-29T12:58:11.153Z,12.60
2023-03-29T13:03:35.055Z,9.70
2023-03-29T13:08:44.827Z,16.40
2023-03-29T13:13:51.212Z,12.90
2023-03-29T13:19:04.341Z,16.80
2023-03-29T13:24:29.466Z,12.80
2023-03-29T13:29:53.733Z,13.10
2023-03-29T13:35:22.238Z,12.40
2023-03-29T13:40:44.795Z,14.20
2023-03-29T13:45:58.244Z,10.80
2023-03-29T13:51:24.789Z,8.70
2023-03-29T13:57:06.186Z,8.30
2023-03-29T14:02:20.263Z,10.70
2023-03-29T14:07:26.787Z,10.50
2023-03-29T14:12:39.462Z,10.20
2023-03-29T14:17:45.366Z,8.80
2023-03-29T14:22:50.212Z,24.50
2023-03-29T14:27:54.115Z,8.60
2023-03-29T14:32:58.496Z,13.00
2023-03-29T14:38:03.964Z,11.50
2023-03-29T14:43:11.531Z,9.80
2023-03-29T14:48:16.825Z,11.60
2023-03-29T14:53:23.260Z,7.90
2023-03-29T14:58:33.851Z,7.30
2023-03-29T15:03:49.866Z,8.00
2023-03-29T15:09:05.363Z,8.50
2023-03-29T15:14:16.654Z,8.00
2023-03-29T15:19:26.005Z,8.40
2023-03-29T15:24:32.501Z,9.40
2023-03-29T15:29:42.701Z,9.10
2023-03-29T15:34:47.842Z,14.80
2023-03-29T15:39:52.531Z,22.80
2023-03-29T15:44:56.823Z,66.10
2023-03-29T15:50:00.939Z,55.00
2023-03-29T15:55:05.609Z,52.00
2023-03-29T16:00:14.144Z,47.60
2023-03-29T16:05:18.465Z,47.00
2023-03-29T16:10:22.611Z,44.00
2023-03-29T16:15:27.693Z,53.20
2023-03-29T16:20:31.894Z,37.40
2023-03-29T16:25:40.814Z,41.90
2023-03-29T16:30:44.890Z,32.70
2023-03-29T16:35:49.220Z,34.80
2023-03-29T16:40:54.174Z,45.80
2023-03-29T16:45:58.459Z,34.40
2023-03-29T16:51:03.586Z,34.70
2023-03-29T16:56:08.240Z,29.90
2023-03-29T17:01:17.510Z,33.80
2023-03-29T17:06:22.525Z,31.50
2023-03-29T17:11:28.958Z,34.60
2023-03-29T17:16:33.302Z,35.30
2023-03-29T17:21:37.994Z,31.30
2023-03-29T17:26:43.897Z,31.70
2023-03-29T17:31:50.388Z,32.70
2023-03-29T17:36:56.646Z,30.70
2023-03-29T17:42:01.583Z,28.60
2023-03-29T17:47:13.050Z,28.00
2023-03-29T17:59:36.160Z,23.40
2023-03-29T18:04:43.107Z,27.90
2023-03-29T18:09:48.916Z,22.90
2023-03-29T18:14:57.822Z,27.00
2023-03-29T18:20:03.295Z,22.10
2023-03-29T18:25:09.893Z,20.60
2023-03-29T18:30:17.122Z,17.30
2023-03-29T18:35:23.593Z,16.50
2023-03-29T18:40:36.585Z,25.10
2023-03-29T18:45:43.973Z,34.60
2023-03-29T18:50:50.346Z,20.90
2023-03-29T18:56:02.342Z,24.20
2023-03-29T19:01:07.977Z,20.70
2023-03-29T19:06:15.079Z,23.20
2023-03-29T19:11:21.353Z,19.50
2023-03-29T19:16:29.876Z,18.00
2023-03-29T19:21:35.236Z,17.30
2023-03-29T19:26:42.905Z,16.40
2023-03-29T19:31:48.744Z,19.20
2023-03-29T19:36:55.792Z,22.10
2023-03-29T19:42:02.193Z,21.10
2023-03-29T19:47:07.510Z,20.50
2023-03-29T19:52:22.038Z,22.80
2023-03-29T19:57:31.119Z,24.30
2023-03-29T20:02:37.264Z,29.80
2023-03-29T20:07:42.911Z,22.30
2023-03-29T20:12:48.257Z,16.60
2023-03-29T20:17:58.482Z,18.70
2023-03-29T20:23:06.895Z,17.30
2023-03-29T20:28:13.584Z,17.20
2023-03-29T20:33:22.557Z,17.30
2023-03-29T20:38:26.858Z,15.00
2023-03-29T20:43:37.888Z,14.10
2023-03-29T20:48:53.591Z,16.90
2023-03-29T20:54:04.052Z,13.60
2023-03-29T20:59:11.001Z,15.50
2023-03-29T21:04:15.079Z,16.40
2023-03-29T21:09:21.631Z,12.20
2023-03-29T21:14:27.013Z,11.20
2023-03-29T21:19:30.953Z,11.90
2023-03-29T21:24:36.934Z,12.00
2023-03-29T21:29:40.761Z,11.10
2023-03-29T21:34:45.000Z,7.50
2023-03-29T21:39:49.942Z,10.50
2023-03-29T21:44:53.867Z,10.00
2023-03-29T21:49:58.330Z,11.80
2023-03-29T21:55:02.456Z,7.80
2023-03-29T22:00:11.512Z,8.60
2023-03-29T22:05:16.574Z,9.30
2023-03-29T22:10:23.562Z,10.90
2023-03-29T22:15:30.458Z,10.40
2023-03-29T22:20:34.705Z,7.90
2023-03-29T22:25:38.719Z,10.90
2023-03-29T22:30:42.971Z,12.00
2023-03-29T22:35:47.012Z,9.90
2023-03-29T22:40:51.432Z,8.50
2023-03-29T22:45:55.717Z,10.60
2023-03-29T22:51:00.219Z,7.60
2023-03-29T22:56:05.262Z,8.30
2023-03-29T23:01:09.541Z,11.20
2023-03-29T23:06:13.760Z,8.50
2023-03-29T23:11:17.863Z,9.30
2023-03-29T23:16:21.998Z,7.10
2023-03-29T23:21:28.276Z,7.00
2023-03-29T23:26:32.231Z,8.30
2023-03-29T23:31:36.723Z,6.90
2023-03-29T23:36:40.909Z,6.00
2023-03-29T23:41:44.748Z,6.30
2023-03-29T23:46:49.118Z,6.30
2023-03-29T23:51:53.217Z,6.10
2023-03-29T23:56:57.365Z,4.50
